createdAt,value
2022-10-06T00:00:54.943Z,10.25
2022-10-06T00:03:23.519Z,10.41
2022-10-06T00:05:51.904Z,10.79
2022-10-06T00:08:19.401Z,10.67
2022-10-06T00:10:46.215Z,10.52
2022-10-06T00:13:12.891Z,10.37
2022-10-06T00:15:39.743Z,10.41
2022-10-06T00:18:06.581Z,9.94
2022-10-06T00:20:33.347Z,10.19
2022-10-06T00:23:00.120Z,10.12
2022-10-06T00:25:28.316Z,10.08
2022-10-06T00:27:56.202Z,10.05
2022-10-06T00:30:25.515Z,10.45
2022-10-06T00:32:57.829Z,10.19
2022-10-06T00:35:26.915Z,10.40
2022-10-06T00:37:53.753Z,10.27
2022-10-06T00:40:21.955Z,10.35
2022-10-06T00:42:58.997Z,10.22
2022-10-06T00:45:32.229Z,10.05
2022-10-06T00:48:00.660Z,10.40
2022-10-06T00:50:28.222Z,9.91
2022-10-06T00:52:55.866Z,9.59
2022-10-06T00:55:23.374Z,9.91
2022-10-06T00:57:52.454Z,9.92
2022-10-06T01:00:19.845Z,10.10
2022-10-06T01:02:54.808Z,10.13
2022-10-06T01:05:28.172Z,10.41
2022-10-06T01:07:55.054Z,10.88
2022-10-06T01:10:22.079Z,10.92
2022-10-06T01:12:48.810Z,10.98
2022-10-06T01:15:16.648Z,11.21
2022-10-06T01:17:48.492Z,11.52
2022-10-06T01:20:18.412Z,11.53
2022-10-06T01:22:48.312Z,11.57
2022-10-06T01:25:17.855Z,11.61
2022-10-06T01:27:51.516Z,11.31
2022-10-06T01:30:25.024Z,11.41
2022-10-06T01:32:52.445Z,11.23
2022-10-06T01:35:19.435Z,11.46
2022-10-06T01:37:46.104Z,11.83
2022-10-06T01:40:12.798Z,11.75
2022-10-06T01:42:39.559Z,11.86
2022-10-06T01:45:06.831Z,11.79
2022-10-06T01:47:34.684Z,11.50
2022-10-06T01:50:01.440Z,11.49
2022-10-06T01:52:28.179Z,11.31
2022-10-06T01:54:55.059Z,11.23
2022-10-06T01:57:21.840Z,11.46
2022-10-06T01:59:53.861Z,11.49
2022-10-06T02:02:21.355Z,11.39
2022-10-06T02:04:48.111Z,11.25
2022-10-06T02:07:14.846Z,11.19
2022-10-06T02:09:41.533Z,10.93
2022-10-06T02:12:08.273Z,10.89
2022-10-06T02:14:35.051Z,10.98
2022-10-06T02:17:01.755Z,11.06
2022-10-06T02:19:28.467Z,11.16
2022-10-06T02:21:55.618Z,11.04
2022-10-06T02:24:22.423Z,10.98
2022-10-06T02:26:49.062Z,11.00
2022-10-06T02:29:15.654Z,10.84
2022-10-06T02:31:42.418Z,10.66
2022-10-06T02:34:10.199Z,10.69
2022-10-06T02:36:37.022Z,10.76
2022-10-06T02:39:04.253Z,10.50
2022-10-06T02:41:32.848Z,10.79
2022-10-06T02:43:59.650Z,10.40
2022-10-06T02:46:26.449Z,10.75
2022-10-06T02:48:53.960Z,10.68
2022-10-06T02:51:22.143Z,10.77
2022-10-06T02:53:50.041Z,10.69
2022-10-06T02:56:22.910Z,10.66
2022-10-06T02:58:50.435Z,10.40
2022-10-06T03:01:26.232Z,10.08
2022-10-06T03:03:53.749Z,10.48
2022-10-06T03:06:25.791Z,10.39
2022-10-06T03:08:58.657Z,10.23
2022-10-06T03:11:31.288Z,10.29
2022-10-06T03:13:58.737Z,10.19
2022-10-06T03:16:32.145Z,10.16
2022-10-06T03:18:59.492Z,10.14
2022-10-06T03:21:29.376Z,10.21
2022-10-06T03:23:57.454Z,10.11
2022-10-06T03:26:27.911Z,10.29
2022-10-06T03:28:55.877Z,10.21
2022-10-06T03:31:23.816Z,9.76
2022-10-06T03:33:51.420Z,10.10
2022-10-06T03:36:20.338Z,9.91
2022-10-06T03:38:47.521Z,9.73
2022-10-06T03:41:17.186Z,10.28
2022-10-06T03:43:45.371Z,10.24
2022-10-06T03:46:14.639Z,10.02
2022-10-06T03:48:41.816Z,10.18
2022-10-06T03:51:13.310Z,10.20
2022-10-06T03:53:41.057Z,10.43
2022-10-06T03:56:13.430Z,10.37
2022-10-06T03:58:42.926Z,10.47
2022-10-06T04:01:13.869Z,10.12
2022-10-06T04:03:41.018Z,10.65
2022-10-06T04:06:12.240Z,10.48
2022-10-06T04:08:39.930Z,10.68
2022-10-06T04:11:11.324Z,10.58
2022-10-06T04:13:39.322Z,10.32
2022-10-06T04:16:23.075Z,10.85
2022-10-06T04:18:52.072Z,10.60
2022-10-06T04:21:19.269Z,10.52
2022-10-06T04:23:46.623Z,10.82
2022-10-06T04:26:16.403Z,10.76
2022-10-06T04:28:44.746Z,10.80
2022-10-06T04:31:19.281Z,10.99
2022-10-06T04:33:47.920Z,10.87
2022-10-06T04:36:17.404Z,10.84
2022-10-06T04:38:44.346Z,11.00
2022-10-06T04:41:14.624Z,10.90
2022-10-06T04:43:41.623Z,10.95
2022-10-06T04:46:37.764Z,11.14
2022-10-06T04:48:57.133Z,11.15
2022-10-06T04:51:26.322Z,11.18
2022-10-06T04:53:53.099Z,11.26
2022-10-06T04:56:24.222Z,11.16
2022-10-06T04:58:52.879Z,10.98
2022-10-06T05:01:23.453Z,11.37
2022-10-06T05:03:56.121Z,11.36
2022-10-06T05:06:41.314Z,11.58
2022-10-06T05:09:11.146Z,11.32
2022-10-06T05:11:38.472Z,11.32
2022-10-06T05:14:05.412Z,11.51
2022-10-06T05:16:32.460Z,11.28
2022-10-06T05:18:59.783Z,11.44
2022-10-06T05:21:29.257Z,11.26
2022-10-06T05:23:56.515Z,11.38
2022-10-06T05:26:25.348Z,11.34
2022-10-06T05:28:52.130Z,11.27
2022-10-06T05:31:24.662Z,11.25
2022-10-06T05:33:51.450Z,11.23
2022-10-06T05:36:20.936Z,11.32
2022-10-06T05:38:48.270Z,11.23
2022-10-06T05:41:26.749Z,11.23
2022-10-06T05:43:53.447Z,11.18
2022-10-06T05:46:24.015Z,11.10
2022-10-06T05:48:58.979Z,11.01
2022-10-06T05:51:31.058Z,10.90
2022-10-06T05:53:59.547Z,10.97
2022-10-06T05:56:31.451Z,10.63
2022-10-06T05:58:59.380Z,10.81
2022-10-06T06:01:37.441Z,10.78
2022-10-06T06:04:06.706Z,10.64
2022-10-06T06:06:39.109Z,10.43
2022-10-06T06:09:17.588Z,10.49
2022-10-06T06:11:47.077Z,10.32
2022-10-06T06:14:44.053Z,10.08
2022-10-06T06:17:11.665Z,10.01
2022-10-06T06:19:38.330Z,9.98
2022-10-06T06:22:04.995Z,9.69
2022-10-06T06:24:31.770Z,9.62
2022-10-06T06:26:58.459Z,9.94
2022-10-06T06:29:25.114Z,9.84
2022-10-06T06:31:51.981Z,9.86
2022-10-06T06:34:18.587Z,9.79
2022-10-06T06:36:47.558Z,9.79
2022-10-06T06:39:15.491Z,9.86
2022-10-06T06:41:46.363Z,9.73
2022-10-06T06:44:14.130Z,9.73
2022-10-06T06:46:43.557Z,9.82
2022-10-06T06:49:12.220Z,9.94
2022-10-06T06:51:41.466Z,9.67
2022-10-06T06:54:09.979Z,9.81
2022-10-06T06:56:37.176Z,9.69
2022-10-06T06:59:09.046Z,10.04
2022-10-06T07:01:36.538Z,10.04
2022-10-06T07:04:04.175Z,9.94
2022-10-06T07:06:31.975Z,9.96
2022-10-06T07:09:00.257Z,10.21
2022-10-06T07:11:32.164Z,10.02
2022-10-06T07:14:04.253Z,10.45
2022-10-06T07:16:50.478Z,10.54
2022-10-06T07:19:37.612Z,10.47
2022-10-06T07:22:25.894Z,11.86
2022-10-06T07:25:11.721Z,12.51
2022-10-06T07:27:46.757Z,13.25
2022-10-06T07:30:13.543Z,13.35
2022-10-06T07:32:40.230Z,13.20
2022-10-06T07:35:07.315Z,13.84
2022-10-06T07:37:36.889Z,13.94
2022-10-06T07:40:07.592Z,14.14
2022-10-06T07:42:48.328Z,14.29
2022-10-06T07:45:33.673Z,14.70
2022-10-06T07:48:01.853Z,14.60
2022-10-06T07:50:28.933Z,14.98
2022-10-06T07:52:55.915Z,14.87
2022-10-06T07:55:22.924Z,15.22
2022-10-06T07:57:51.312Z,15.45
2022-10-06T08:00:21.098Z,15.32
2022-10-06T08:02:48.459Z,15.59
2022-10-06T08:05:15.300Z,15.34
2022-10-06T08:07:41.984Z,15.83
2022-10-06T08:10:08.999Z,15.40
2022-10-06T08:12:38.033Z,15.93
2022-10-06T08:15:07.917Z,15.52
2022-10-06T08:17:36.657Z,15.34
2022-10-06T08:20:09.075Z,15.65
2022-10-06T08:22:39.178Z,15.97
2022-10-06T08:25:10.930Z,16.14
2022-10-06T08:27:38.472Z,15.74
2022-10-06T08:30:07.480Z,15.54
2022-10-06T08:32:34.687Z,15.74
2022-10-06T08:35:01.770Z,16.01
2022-10-06T08:37:28.781Z,15.94
2022-10-06T08:39:56.823Z,15.95
2022-10-06T08:42:39.533Z,16.05
2022-10-06T08:45:16.837Z,16.46
2022-10-06T08:47:59.140Z,15.85
2022-10-06T08:50:28.803Z,15.96
2022-10-06T08:53:26.580Z,15.41
2022-10-06T08:56:09.218Z,15.67
2022-10-06T08:58:57.658Z,15.73
2022-10-06T09:01:27.579Z,15.47
2022-10-06T09:04:01.858Z,15.83
2022-10-06T09:07:11.446Z,15.87
2022-10-06T09:09:53.997Z,15.76
2022-10-06T09:12:32.928Z,16.21
2022-10-06T09:15:23.591Z,15.86
2022-10-06T09:17:56.401Z,16.00
2022-10-06T09:20:34.405Z,15.83
2022-10-06T09:23:04.934Z,16.27
2022-10-06T09:25:32.024Z,16.06
2022-10-06T09:28:01.198Z,16.49
2022-10-06T09:30:28.102Z,16.08
2022-10-06T09:33:00.185Z,16.18
2022-10-06T09:35:30.275Z,16.26
2022-10-06T09:38:01.409Z,16.46
2022-10-06T09:40:34.571Z,16.82
2022-10-06T09:43:02.416Z,16.72
2022-10-06T09:45:29.612Z,16.20
2022-10-06T09:48:24.669Z,16.22
2022-10-06T09:51:14.911Z,15.87
2022-10-06T09:53:43.085Z,16.56
2022-10-06T09:56:19.452Z,16.59
2022-10-06T09:58:57.959Z,17.04
2022-10-06T10:01:29.536Z,16.54
2022-10-06T10:04:23.944Z,16.76
2022-10-06T10:06:52.019Z,16.68
2022-10-06T10:09:22.574Z,16.82
2022-10-06T10:12:28.219Z,16.45
2022-10-06T10:15:01.962Z,16.27
2022-10-06T10:17:37.821Z,16.95
2022-10-06T10:20:19.766Z,16.27
2022-10-06T10:22:48.587Z,16.22
2022-10-06T10:25:27.447Z,16.01
2022-10-06T10:28:29.067Z,16.39
2022-10-06T10:31:34.003Z,16.82
2022-10-06T10:34:25.943Z,17.23
2022-10-06T10:37:09.503Z,17.25
2022-10-06T10:39:42.126Z,17.11
2022-10-06T10:42:28.776Z,17.08
2022-10-06T10:45:04.428Z,17.63
2022-10-06T10:47:39.475Z,17.74
2022-10-06T10:50:34.869Z,17.99
2022-10-06T10:53:10.737Z,17.58
2022-10-06T10:55:42.931Z,17.48
2022-10-06T10:58:31.426Z,17.69
2022-10-06T11:01:32.312Z,17.57
2022-10-06T11:04:00.962Z,17.19
2022-10-06T11:06:53.846Z,18.02
2022-10-06T11:09:49.729Z,17.74
2022-10-06T11:12:41.231Z,17.46
2022-10-06T11:15:17.432Z,16.95
2022-10-06T11:17:47.148Z,17.17
2022-10-06T11:20:13.823Z,17.31
2022-10-06T11:22:41.754Z,17.44
2022-10-06T11:25:19.481Z,17.65
2022-10-06T11:28:25.208Z,17.77
2022-10-06T11:31:21.910Z,17.39
2022-10-06T11:33:53.045Z,17.49
2022-10-06T11:36:37.913Z,17.61
2022-10-06T11:39:22.804Z,17.42
2022-10-06T11:41:58.386Z,17.23
2022-10-06T11:44:37.211Z,17.07
2022-10-06T11:47:11.439Z,17.04
2022-10-06T11:49:52.603Z,16.93
2022-10-06T11:52:19.273Z,17.11
2022-10-06T11:54:54.203Z,17.38
2022-10-06T11:57:27.986Z,17.40
2022-10-06T12:00:17.479Z,17.41
2022-10-06T12:02:46.376Z,17.08
2022-10-06T12:05:45.935Z,17.12
2022-10-06T12:08:00.859Z,16.93
2022-10-06T12:10:32.159Z,16.99
2022-10-06T12:14:15.652Z,16.92
2022-10-06T12:19:18.786Z,16.92
2022-10-06T12:22:17.361Z,16.96
2022-10-06T12:25:03.032Z,16.75
2022-10-06T12:27:41.964Z,16.94
2022-10-06T12:30:19.499Z,16.92
2022-10-06T12:32:53.470Z,17.01
2022-10-06T12:35:40.307Z,17.08
2022-10-06T12:38:31.728Z,17.60
2022-10-06T12:40:59.616Z,17.24
2022-10-06T12:43:43.998Z,18.07
2022-10-06T12:46:25.971Z,18.18
2022-10-06T12:49:26.782Z,18.18
2022-10-06T12:51:57.781Z,18.69
2022-10-06T12:54:35.356Z,18.19
2022-10-06T12:57:14.443Z,18.37
2022-10-06T12:59:41.967Z,18.44
2022-10-06T13:02:14.633Z,18.56
2022-10-06T13:04:43.769Z,18.42
2022-10-06T13:07:18.343Z,18.18
2022-10-06T13:09:47.078Z,17.97
2022-10-06T13:12:29.019Z,17.95
2022-10-06T13:15:25.224Z,17.53
2022-10-06T13:18:04.245Z,18.18
2022-10-06T13:20:38.292Z,17.95
2022-10-06T13:23:20.178Z,17.72
2022-10-06T13:25:59.307Z,17.91
2022-10-06T13:28:34.388Z,17.83
2022-10-06T13:31:24.748Z,18.50
2022-10-06T13:34:11.590Z,17.54
2022-10-06T13:36:41.513Z,17.82
2022-10-06T13:39:17.424Z,17.72
2022-10-06T13:41:52.449Z,17.65
2022-10-06T13:44:19.073Z,18.03
2022-10-06T13:46:49.601Z,18.12
2022-10-06T13:49:16.719Z,18.29
2022-10-06T13:51:51.376Z,18.06
2022-10-06T13:54:31.447Z,18.28
2022-10-06T13:56:58.860Z,18.11
2022-10-06T13:59:25.495Z,18.19
2022-10-06T14:01:52.348Z,17.74
2022-10-06T14:04:19.697Z,18.17
2022-10-06T14:06:56.323Z,18.00
2022-10-06T14:09:26.996Z,17.94
2022-10-06T14:12:07.013Z,18.28
2022-10-06T14:14:34.241Z,18.01
2022-10-06T14:17:01.139Z,17.92
2022-10-06T14:19:40.848Z,18.02
2022-10-06T14:22:38.451Z,18.01
2022-10-06T14:25:12.865Z,17.60
2022-10-06T14:27:39.761Z,17.47
2022-10-06T14:30:07.375Z,17.53
2022-10-06T14:32:34.267Z,17.69
2022-10-06T14:35:02.673Z,17.91
2022-10-06T14:37:29.407Z,17.61
2022-10-06T14:39:56.640Z,17.90
2022-10-06T14:42:24.546Z,17.84
2022-10-06T14:44:51.317Z,17.82
2022-10-06T14:47:18.048Z,17.75
2022-10-06T14:49:45.440Z,17.77
2022-10-06T14:52:12.956Z,17.91
2022-10-06T14:54:40.061Z,17.77
2022-10-06T14:57:06.917Z,17.70
2022-10-06T14:59:33.766Z,17.56
2022-10-06T15:07:41.093Z,17.40
2022-10-06T15:12:52.124Z,16.62
2022-10-06T15:15:20.838Z,16.67
2022-10-06T15:18:01.282Z,16.60
2022-10-06T15:20:30.201Z,16.33
2022-10-06T15:22:59.069Z,17.14
2022-10-06T15:25:44.369Z,16.88
2022-10-06T15:28:32.242Z,17.10
2022-10-06T15:30:59.794Z,16.95
2022-10-06T15:33:30.468Z,16.98
2022-10-06T15:36:18.373Z,16.63
2022-10-06T15:38:46.831Z,17.04
2022-10-06T15:41:15.346Z,16.60
2022-10-06T15:44:00.389Z,16.81
2022-10-06T15:46:34.555Z,17.33
2022-10-06T15:49:04.979Z,17.26
2022-10-06T15:51:46.844Z,16.89
2022-10-06T15:54:21.800Z,16.98
2022-10-06T15:56:53.105Z,16.79
2022-10-06T15:59:24.364Z,16.20
2022-10-06T16:01:56.177Z,16.66
2022-10-06T16:04:43.573Z,16.91
2022-10-06T16:12:49.549Z,15.62
2022-10-06T16:28:51.552Z,15.96
2022-10-06T16:36:42.232Z,15.96
2022-10-06T16:41:55.021Z,15.60
2022-10-06T16:44:21.956Z,15.87
2022-10-06T16:46:48.873Z,15.87
2022-10-06T16:49:15.724Z,15.66
2022-10-06T16:54:28.370Z,15.44
2022-10-06T16:56:55.597Z,15.47
2022-10-06T16:59:26.185Z,14.97
2022-10-06T17:13:36.391Z,14.94
2022-10-06T17:16:07.619Z,15.12
2022-10-06T17:18:35.276Z,14.63
2022-10-06T17:21:20.219Z,15.05
2022-10-06T17:23:58.312Z,14.74
2022-10-06T17:26:27.656Z,14.77
2022-10-06T17:28:58.889Z,15.04
2022-10-06T17:31:37.428Z,14.82
2022-10-06T17:34:20.335Z,14.55
2022-10-06T17:36:49.032Z,15.04
2022-10-06T17:39:20.723Z,14.46
2022-10-06T17:41:48.632Z,14.32
2022-10-06T17:44:20.685Z,14.54
2022-10-06T17:46:48.276Z,14.24
2022-10-06T17:49:16.724Z,14.64
2022-10-06T17:51:50.754Z,14.29
2022-10-06T17:54:20.878Z,13.90
2022-10-06T17:56:49.725Z,13.81
2022-10-06T17:59:22.410Z,13.72
2022-10-06T18:01:51.469Z,13.71
2022-10-06T18:04:18.984Z,13.76
2022-10-06T18:06:47.292Z,13.56
2022-10-06T18:09:15.141Z,13.63
2022-10-06T18:11:44.326Z,13.65
2022-10-06T18:14:19.930Z,13.63
2022-10-06T18:16:56.866Z,13.80
2022-10-06T18:19:30.278Z,13.66
2022-10-06T18:22:00.235Z,13.36
2022-10-06T18:24:29.434Z,13.59
2022-10-06T18:26:58.047Z,13.20
2022-10-06T18:29:29.087Z,13.62
2022-10-06T18:32:09.155Z,13.13
2022-10-06T18:37:29.578Z,13.40
2022-10-06T18:39:57.112Z,13.23
2022-10-06T18:42:24.648Z,13.51
2022-10-06T18:45:09.963Z,13.47
2022-10-06T18:47:55.144Z,13.79
2022-10-06T18:50:21.954Z,13.82
2022-10-06T18:52:48.626Z,13.42
2022-10-06T18:55:15.470Z,13.88
2022-10-06T18:57:45.993Z,13.84
2022-10-06T19:00:17.733Z,13.90
2022-10-06T19:02:48.245Z,14.10
2022-10-06T19:05:17.398Z,14.23
2022-10-06T19:07:45.001Z,13.94
2022-10-06T19:10:12.026Z,14.08
2022-10-06T19:12:39.077Z,14.17
2022-10-06T19:15:06.260Z,14.28
2022-10-06T19:17:32.993Z,14.42
2022-10-06T19:19:59.719Z,14.29
2022-10-06T19:22:26.483Z,14.53
2022-10-06T19:24:53.267Z,14.32
2022-10-06T19:27:24.355Z,14.31
2022-10-06T19:29:56.803Z,14.43
2022-10-06T19:32:26.878Z,14.63
2022-10-06T19:34:58.134Z,14.72
2022-10-06T19:37:29.570Z,14.65
2022-10-06T19:39:56.385Z,14.51
2022-10-06T19:42:41.639Z,14.44
2022-10-06T19:45:09.769Z,14.77
2022-10-06T19:47:36.389Z,14.71
2022-10-06T19:50:10.279Z,14.74
2022-10-06T19:52:38.405Z,14.50
2022-10-06T19:55:05.472Z,14.83
2022-10-06T19:57:33.710Z,14.97
2022-10-06T20:00:00.936Z,14.93
2022-10-06T20:02:29.078Z,14.81
2022-10-06T20:04:56.430Z,14.63
2022-10-06T20:07:27.569Z,14.91
2022-10-06T20:09:54.882Z,14.89
2022-10-06T20:12:25.025Z,14.71
2022-10-06T20:14:53.340Z,14.49
2022-10-06T20:17:20.843Z,14.84
2022-10-06T20:19:47.639Z,14.89
2022-10-06T20:22:14.437Z,14.79
2022-10-06T20:24:41.369Z,14.69
2022-10-06T20:27:09.058Z,14.90
2022-10-06T20:29:35.810Z,15.13
2022-10-06T20:32:05.252Z,14.82
2022-10-06T20:34:33.232Z,14.93
2022-10-06T20:37:05.367Z,15.12
2022-10-06T20:39:52.509Z,15.17
2022-10-06T20:42:21.149Z,14.98
2022-10-06T20:44:48.262Z,15.16
2022-10-06T20:47:16.741Z,15.00
2022-10-06T20:49:43.999Z,14.92
2022-10-06T20:52:14.396Z,15.06
2022-10-06T20:54:41.314Z,15.01
2022-10-06T20:57:09.517Z,14.93
2022-10-06T20:59:36.730Z,14.98
2022-10-06T21:02:04.630Z,15.00
2022-10-06T21:04:31.312Z,14.86
2022-10-06T21:06:58.265Z,14.97
2022-10-06T21:09:25.352Z,15.10
2022-10-06T21:11:52.624Z,15.17
2022-10-06T21:14:20.005Z,15.30
2022-10-06T21:16:48.259Z,15.14
2022-10-06T21:19:17.399Z,15.29
2022-10-06T21:21:46.140Z,14.88
2022-10-06T21:24:12.930Z,15.06
2022-10-06T21:26:42.760Z,15.28
2022-10-06T21:29:14.777Z,15.08
2022-10-06T21:31:42.418Z,14.96
2022-10-06T21:34:10.558Z,14.95
2022-10-06T21:36:38.024Z,15.18
2022-10-06T21:39:06.035Z,15.23
2022-10-06T21:41:41.343Z,15.15
2022-10-06T21:44:12.161Z,15.17
2022-10-06T21:46:41.711Z,15.25
2022-10-06T21:49:13.863Z,14.99
2022-10-06T21:51:42.730Z,14.85
2022-10-06T21:54:10.577Z,15.15
2022-10-06T21:56:37.799Z,15.35
2022-10-06T21:59:04.857Z,15.22
2022-10-06T22:01:34.366Z,14.95
2022-10-06T22:04:01.590Z,15.34
2022-10-06T22:06:29.454Z,15.25
2022-10-06T22:08:57.669Z,15.52
2022-10-06T22:11:29.341Z,15.52
2022-10-06T22:14:02.634Z,15.64
2022-10-06T22:16:30.220Z,15.58
2022-10-06T22:18:57.601Z,15.33
2022-10-06T22:21:30.025Z,15.22
2022-10-06T22:24:02.424Z,15.24
2022-10-06T22:26:31.649Z,15.27
2022-10-06T22:28:59.878Z,15.38
2022-10-06T22:31:28.175Z,15.55
2022-10-06T22:33:57.441Z,15.37
2022-10-06T22:36:24.973Z,15.09
2022-10-06T22:38:52.145Z,15.27
2022-10-06T22:41:19.226Z,15.04
2022-10-06T22:43:46.065Z,15.26
2022-10-06T22:46:13.378Z,15.19
2022-10-06T22:48:40.555Z,15.11
2022-10-06T22:51:07.825Z,14.75
2022-10-06T22:53:35.209Z,14.89
2022-10-06T22:56:04.096Z,14.86
2022-10-06T22:58:31.176Z,14.91
2022-10-06T23:00:57.913Z,14.85
2022-10-06T23:03:24.943Z,15.06
2022-10-06T23:06:00.281Z,15.10
2022-10-06T23:08:32.658Z,15.30
2022-10-06T23:11:14.301Z,15.11
2022-10-06T23:13:43.274Z,15.36
2022-10-06T23:16:12.755Z,15.16
2022-10-06T23:18:41.169Z,15.19
2022-10-06T23:21:09.324Z,15.11
2022-10-06T23:23:36.622Z,15.28
2022-10-06T23:26:08.675Z,14.97
2022-10-06T23:28:35.402Z,15.12
2022-10-06T23:31:04.869Z,15.36
2022-10-06T23:33:32.761Z,15.21
2022-10-06T23:36:01.984Z,15.21
2022-10-06T23:38:29.021Z,15.01
2022-10-06T23:40:56.220Z,15.45
2022-10-06T23:43:23.329Z,15.37
2022-10-06T23:45:50.516Z,15.40
2022-10-06T23:48:17.513Z,15.56
2022-10-06T23:50:55.062Z,15.21
2022-10-06T23:53:21.693Z,15.14
2022-10-06T23:55:48.510Z,15.17
2022-10-06T23:58:15.556Z,15.04
